Stamford, VT (05352)

2:22 PM EDT on August 30, 2015 (GMT -0400)
Route 8 - 0.6 mile south of Vermont border | | Change Station
CLOSE
Current Station
Personal Weather Station
Location: Clarksburg, MA
Elevation: 1090 ft
Nearby Weather Stations

Elev 1090 ft 42.73 °N, 73.07 °W | Updated 9 minutes ago

Mostly Cloudy
Mostly Cloudy
77.6 °F
Feels Like 79 °F
N
1.0
Wind Variable Wind from SE
Gusts 2.0 mph

Today
High -- | Low -- °F
--% Chance of Precip.
Yesterday
High -- | Low -- °F
Precip. -- in
6:14 AM 7:30 PM
Full, 99% visible
Pressure 30.07 in
Visibility 10.0 miles
Clouds Few 7500 ft
Mostly Cloudy 10000 ft
Heat Index 79 °F
Dew Point 62 °F
Humidity 59%
Rainfall Not available.
Snow Depth Not available.
UV 5 out of 12
Pollen 9.20 out of 12
Air Quality Not available.
Flu Activity Not available.
METAR KAQW 301752Z AUTO 00000KT 10SM FEW075 BKN100 26/18 A3007 RMK AO2 SLP182 T02560178 10261 20161 58014
Pressure 30.07 in
Visibility 10.0 miles
Clouds Few 7500 ft
Mostly Cloudy 10000 ft
Heat Index 79 °F
Dew Point 62 °F
Humidity 59%
Rainfall Not available.
Snow Depth Not available.
UV 5 out of 12
Pollen 9.20 out of 12
Air Quality Not available.
Flu Activity Not available.
METAR KAQW 301752Z AUTO 00000KT 10SM FEW075 BKN100 26/18 A3007 RMK AO2 SLP182 T02560178 10261 20161 58014

10-Day Weather Forecast

×

Almanac

Astronomy

Aug. 30, 2015 Rise Set
Actual Time
Civil Twilight
Nautical Twilight
Astronomical Twilight
Moon
Length of Visible Light
Length of Day
Tomorrow will be .
, % of the Moon is Illuminated

Today's Extremes

State Highs State Lows

Community

WunderPhotos

Upload Photos

1,851,029 photos uploaded!

WunderBlogs® & News

Nearby

Air Quality

  Air Quality AQ Index Pollutant
Not available.

Snow Depth

Station Depth Elevation

Earthquake Activity

City Distance Mag. Time & Date
Minimum magnitude displayed is 2.5.

Coastal Water Temperatures

Place Temperature

Stations

Nearby Weather Stations

Station Location Temp. Windchill Dew Point Humidity Wind Precip. Elev Updated Type